Ana Sayfa
METAR-TAF:

METAR-TAF

Havaalanları :

Cooma, Avustralya

Enlem: 36-18-00S, Boylam: 148-58-24E, yükseklik: 947 m

Güncel hava durumu gözlemi

Rapor saat 07:00 UTC de 38 dakika önce yapıldı.
Rüzgar güneydan 5 kt
Sıcaklık 3°C
Nem 60%
Basınç 1020 hPa
Görüş mesafesi 10 km veya daha fazla
4200 ft yükseklikte parçalı bulutlu
5300 ft yükseklikte çok bulutlu

METAR: YCOM 200700Z AUTO 17005KT 9999 // SCT042 OVC053 03/M04 Q1020

Saat: 17:38 (07:38 UTC)


TAF: eksik

4.000'den fazla havaalanı için hava durumu gözlemleri ve tahminleri (METAR ve TAF raporları).

Kullanılabilir istasyonlar harita üzerinde sarı ve kırmızı noktalarla gösterilir.

İstasyonun adını görmek için fareyi noktanın üzerinde gezdirin.

Sonrasında hava gözlem ve tahminlerini görmek için tıklayın.

Haritayı değiştirmek için: yaklaştırmak için siyah artı işaretli yeşil düğmeye ve uzaklaştırmak için de eksi işaretli düğmeye hızla tıklayın; bitişik haritalar için yeşil okları kullanın.


METAR-TAF: